Time;durP1;ratioP1;P1;durP2;ratioP2;P2;SDS_P1;SDS_P2;PMS_P1;PMS_P2;Temp;Humidity;BMP_temperature;BMP_pressure;BME280_temperature;BME280_humidity;BME280_pressure;Samples;Min_cycle;Max_cycle;Signal;HPM_P1;HPM_P2
2023/07/07 00:01:15;;;;;;;3.90;1.80;;;;;;;13.83;69.97;101002.25;6214714;23;20023;-78
2023/07/07 00:04:21;;;;;;;4.05;1.58;;;;;;;13.77;70.50;101008.69;6214758;23;20047;-78
2023/07/07 00:07:24;;;;;;;4.05;1.77;;;;;;;13.71;70.90;101006.41;6215029;23;20027;-78
2023/07/07 00:10:28;;;;;;;8.63;2.10;;;;;;;13.61;71.14;101006.09;6215959;23;20494;-78
2023/07/07 00:13:31;;;;;;;7.03;2.17;;;;;;;13.57;71.52;101004.59;6225349;23;20074;-78
2023/07/07 00:16:37;;;;;;;3.55;1.70;;;;;;;13.61;71.87;101005.25;6246353;23;20046;-78
2023/07/07 00:19:40;;;;;;;4.78;1.80;;;;;;;13.61;71.78;101000.84;6246084;23;20078;-79
2023/07/07 00:22:44;;;;;;;4.13;1.80;;;;;;;13.55;71.51;101001.19;6245907;23;20106;-79
2023/07/07 00:26:04;;;;;;;4.30;2.00;;;;;;;13.54;71.55;101007.41;6245835;23;20054;-78
2023/07/07 00:29:10;;;;;;;5.13;2.05;;;;;;;13.48;71.67;101007.75;6245442;23;20123;-78
2023/07/07 00:32:13;;;;;;;3.35;2.00;;;;;;;13.43;71.74;101015.03;6246243;23;20074;-78
2023/07/07 00:35:17;;;;;;;4.15;1.73;;;;;;;13.45;71.78;101002.66;6246325;23;20066;-77
2023/07/07 00:38:20;;;;;;;4.90;1.80;;;;;;;13.33;71.87;101001.56;6246142;23;20586;-78
2023/07/07 00:41:23;;;;;;;4.68;1.98;;;;;;;13.30;72.04;101011.41;6245784;23;20039;-77
2023/07/07 00:45:04;;;;;;;3.30;1.50;;;;;;;13.20;72.43;101009.25;6245129;23;20046;-78
2023/07/07 00:48:12;;;;;;;4.68;2.20;;;;;;;13.30;72.61;101008.75;6227391;23;20039;-78
2023/07/07 00:51:22;;;;;;;5.28;1.70;;;;;;;13.23;72.51;101009.06;6227612;23;20027;-78
2023/07/07 00:54:32;;;;;;;7.72;2.13;;;;;;;13.16;72.89;101014.75;6246096;23;20023;-78
2023/07/07 00:57:36;;;;;;;4.70;1.90;;;;;;;13.11;72.77;101019.41;6246040;23;20023;-79
2023/07/07 01:00:44;;;;;;;5.13;1.83;;;;;;;13.05;73.33;101015.38;6246036;23;20410;-78
2023/07/07 01:03:56;;;;;;;5.57;2.28;;;;;;;12.99;73.27;101008.66;6245891;23;20055;-79
2023/07/07 01:07:03;;;;;;;2.63;1.38;;;;;;;12.98;73.49;101019.22;6245362;23;20091;-79
2023/07/07 01:10:07;;;;;;;4.15;1.80;;;;;;;12.98;73.28;101014.81;6245609;23;20030;-79
2023/07/07 01:13:11;;;;;;;5.03;2.08;;;;;;;13.08;73.04;101020.44;6245196;23;20395;-78
2023/07/07 01:16:22;;;;;;;6.30;1.60;;;;;;;12.91;73.28;101020.50;6245836;23;20027;-79
2023/07/07 01:19:52;;;;;;;4.80;2.08;;;;;;;12.76;73.49;101019.53;6227315;23;20084;-78
2023/07/07 01:23:28;;;;;;;3.38;1.80;;;;;;;12.65;73.60;101024.53;6230964;23;20066;-79
2023/07/07 01:27:02;;;;;;;2.53;1.50;;;;;;;12.63;74.24;101019.34;6245255;23;20078;-79
2023/07/07 01:30:12;;;;;;;3.85;1.60;;;;;;;12.56;74.93;101020.59;6245874;23;20047;-79
2023/07/07 01:33:19;;;;;;;5.55;1.85;;;;;;;12.55;74.51;101027.63;6245269;23;20052;-79
2023/07/07 01:36:23;;;;;;;4.35;1.73;;;;;;;12.44;74.40;101024.69;6227222;23;20059;-78
2023/07/07 01:39:27;;;;;;;4.15;1.88;;;;;;;12.44;74.50;101026.47;6245504;23;20073;-79
2023/07/07 01:42:43;;;;;;;4.40;1.98;;;;;;;12.38;75.14;101027.69;6245054;23;20082;-78
2023/07/07 01:45:56;;;;;;;4.40;1.80;;;;;;;12.38;75.02;101032.03;6245766;23;20345;-78
2023/07/07 01:49:15;;;;;;;6.75;2.08;;;;;;;12.42;75.18;101038.84;6244988;23;20031;-78
2023/07/07 01:52:35;;;;;;;3.83;2.00;;;;;;;12.40;75.52;101036.28;6245639;23;20026;-78
2023/07/07 01:55:44;;;;;;;3.92;1.70;;;;;;;12.42;75.32;101029.19;6245633;23;20058;-79
2023/07/07 01:58:48;;;;;;;4.68;2.35;;;;;;;12.21;75.40;101033.75;6227164;23;20158;-78
2023/07/07 02:01:51;;;;;;;2.83;1.63;;;;;;;12.18;75.78;101040.94;6226937;23;20023;-78
2023/07/07 02:04:54;;;;;;;6.38;1.90;;;;;;;12.10;75.89;101043.97;6226887;23;20019;-79
2023/07/07 02:07:58;;;;;;;2.90;2.03;;;;;;;12.09;76.22;101039.63;6245479;23;20035;-79
2023/07/07 02:11:02;;;;;;;6.97;1.85;;;;;;;12.04;76.11;101044.25;6245268;23;20027;-78
2023/07/07 02:14:05;;;;;;;4.45;1.67;;;;;;;11.95;76.80;101045.56;6226585;23;20091;-78
2023/07/07 02:17:08;;;;;;;6.80;1.77;;;;;;;11.85;76.74;101041.72;6244553;23;20107;-77
2023/07/07 02:20:12;;;;;;;3.55;1.83;;;;;;;11.86;76.46;101044.22;6245506;23;20084;-77
2023/07/07 02:23:15;;;;;;;4.00;1.58;;;;;;;11.81;76.34;101040.97;6247517;23;20031;-78
2023/07/07 02:26:19;;;;;;;;;;;;;;;11.73;77.14;101040.50;6248051;23;20054;-78
2023/07/07 02:29:22;;;;;;;8.65;1.88;;;;;;;11.75;77.36;101040.44;6247554;23;19927;-78
2023/07/07 02:32:27;;;;;;;5.53;1.60;;;;;;;11.79;76.94;101041.97;6247621;23;20065;-78
2023/07/07 02:35:31;;;;;;;7.85;2.90;;;;;;;11.69;76.74;101049.44;6247284;23;20035;-79
2023/07/07 02:38:35;;;;;;;;;;;;;;;11.71;76.72;101044.97;6229631;23;20027;-79
2023/07/07 02:41:38;;;;;;;;;;;;;;;11.89;77.17;101052.88;6247828;23;19938;-79
2023/07/07 02:44:41;;;;;;;4.82;2.03;;;;;;;11.84;76.86;101051.34;6246597;23;19949;-79
2023/07/07 02:47:45;;;;;;;4.47;1.90;;;;;;;11.73;76.49;101048.34;6228490;23;20354;-79
2023/07/07 02:50:55;;;;;;;4.00;1.80;;;;;;;11.66;76.83;101049.59;6228289;23;20409;-78
2023/07/07 02:53:58;;;;;;;3.67;1.77;;;;;;;11.59;76.96;101061.28;6246147;23;20043;-78
2023/07/07 02:57:02;;;;;;;;;;;;;;;11.51;77.34;101058.16;6228720;23;20069;-78
2023/07/07 03:00:09;;;;;;;4.40;1.65;;;;;;;11.61;77.32;101059.41;6228146;23;20232;-78
2023/07/07 03:03:12;;;;;;;6.60;1.77;;;;;;;11.53;77.16;101051.94;6246157;23;20422;-78
2023/07/07 03:06:18;;;;;;;4.03;1.70;;;;;;;11.44;77.27;101047.13;6246506;23;20099;-78
2023/07/07 03:09:25;;;;;;;4.63;1.50;;;;;;;11.48;77.11;101058.31;6227969;23;20051;-78
2023/07/07 03:12:29;;;;;;;3.85;2.30;;;;;;;11.38;77.58;101069.22;6228566;23;20023;-78
2023/07/07 03:15:41;;;;;;;5.75;2.17;;;;;;;11.30;77.82;101068.75;6246826;23;20097;-78
2023/07/07 03:18:55;;;;;;;4.35;1.75;;;;;;;11.33;77.94;101065.97;6228396;23;20027;-78
2023/07/07 03:21:59;;;;;;;6.40;1.92;;;;;;;11.37;77.65;101069.31;6228344;23;20052;-78
2023/07/07 03:25:09;;;;;;;4.60;1.67;;;;;;;11.36;77.58;101065.84;6228281;23;20023;-78
2023/07/07 03:28:19;;;;;;;4.60;1.75;;;;;;;11.28;77.48;101062.72;6228234;23;20086;-78
2023/07/07 03:31:25;;;;;;;3.92;2.03;;;;;;;11.26;77.61;101075.03;6246895;23;20070;-78
2023/07/07 03:34:32;;;;;;;3.47;1.60;;;;;;;11.41;77.18;101076.94;6228215;23;20401;-79
2023/07/07 03:37:36;;;;;;;;;;;;;;;11.49;76.33;101070.50;6211108;23;20023;-78
2023/07/07 03:40:47;;;;;;;6.55;2.08;;;;;;;11.34;76.82;101074.69;6246721;23;20343;-77
2023/07/07 03:43:53;;;;;;;4.73;1.97;;;;;;;11.27;77.51;101071.50;6228241;23;20027;-76
2023/07/07 03:46:57;;;;;;;9.82;2.00;;;;;;;11.15;77.64;101082.53;6228067;23;20310;-76
2023/07/07 03:50:01;;;;;;;3.78;1.75;;;;;;;11.01;78.43;101080.56;6228159;23;20039;-77
2023/07/07 03:53:07;;;;;;;4.90;1.85;;;;;;;11.26;78.50;101080.25;6227970;23;20027;-76
2023/07/07 03:56:13;;;;;;;3.13;1.80;;;;;;;11.24;78.02;101081.28;6246573;23;20023;-74
2023/07/07 03:59:20;;;;;;;3.78;1.75;;;;;;;11.22;78.16;101077.88;6228157;23;20078;-76
2023/07/07 04:02:23;;;;;;;4.88;1.95;;;;;;;11.20;78.08;101084.94;6227965;23;20027;-76
2023/07/07 04:05:27;;;;;;;;;;;;;;;11.17;77.96;101081.56;6246844;23;20070;-77
2023/07/07 04:08:30;;;;;;;4.40;1.80;;;;;;;11.24;78.12;101086.50;6246513;23;19957;-76
2023/07/07 04:11:33;;;;;;;4.45;2.22;;;;;;;11.22;77.70;101093.56;6227682;23;20031;-75
2023/07/07 04:14:37;;;;;;;;;;;;;;;11.16;78.10;101089.47;6246563;23;20397;-77
2023/07/07 04:17:45;;;;;;;5.00;1.95;;;;;;;11.14;78.65;101086.94;6227840;23;19961;-73
2023/07/07 04:20:49;;;;;;;3.55;1.52;;;;;;;11.13;79.18;101086.97;6246441;23;20083;-74
2023/07/07 04:23:54;;;;;;;4.47;2.15;;;;;;;11.34;78.85;101087.78;6246279;23;20054;-70
2023/07/07 04:26:57;;;;;;;4.93;1.88;;;;;;;11.32;78.06;101089.59;6245942;23;20468;-76
2023/07/07 04:30:00;;;;;;;3.40;1.52;;;;;;;11.24;78.21;101089.97;6246507;23;20059;-76
2023/07/07 04:33:03;;;;;;;;;;;;;;;11.24;78.27;101097.81;6246889;23;20345;-77
2023/07/07 04:36:08;;;;;;;4.10;2.00;;;;;;;11.26;78.18;101101.19;6246068;23;20284;-75
2023/07/07 04:39:12;;;;;;;2.75;1.73;;;;;;;11.26;78.51;101095.97;6245628;23;20023;-78
2023/07/07 04:42:15;;;;;;;4.97;1.67;;;;;;;11.31;78.39;101095.78;6227461;23;20027;-76
2023/07/07 04:45:18;;;;;;;4.50;1.90;;;;;;;11.25;78.58;101103.91;6245304;23;20019;-76
2023/07/07 04:48:22;;;;;;;5.05;2.08;;;;;;;11.25;78.80;101107.38;6246246;23;20027;-77
2023/07/07 04:51:26;;;;;;;4.72;1.70;;;;;;;11.32;78.72;101105.31;6246183;23;20042;-76
2023/07/07 04:54:29;;;;;;;;;;;;;;;11.42;78.60;101111.81;6227803;23;20070;-75
2023/07/07 04:57:33;;;;;;;5.15;2.20;;;;;;;11.58;77.92;101106.72;6246107;23;19962;-75
2023/07/07 05:00:37;;;;;;;4.75;2.05;;;;;;;11.68;76.99;101113.25;6227437;23;20027;-76
2023/07/07 05:03:43;;;;;;;5.13;1.70;;;;;;;11.69;76.27;101109.69;6246101;23;20119;-76
2023/07/07 05:06:46;;;;;;;4.57;1.85;;;;;;;11.74;75.81;101117.31;6245530;23;20046;-76
2023/07/07 05:09:49;;;;;;;;;;;;;;;11.86;75.71;101112.38;6245422;23;20095;-76
2023/07/07 05:12:53;;;;;;;5.53;1.98;;;;;;;11.93;75.37;101112.91;6245756;23;20376;-77
2023/07/07 05:16:05;;;;;;;6.65;1.58;;;;;;;11.94;75.32;101112.00;6245223;23;20065;-77
2023/07/07 05:19:09;;;;;;;2.85;1.55;;;;;;;11.99;75.23;101117.00;6245692;23;20368;-77
2023/07/07 05:22:12;;;;;;;2.97;1.55;;;;;;;11.95;75.86;101115.47;6245711;23;20042;-77
2023/07/07 05:25:16;;;;;;;3.58;1.92;;;;;;;12.01;75.77;101109.94;6245660;23;20090;-77
2023/07/07 05:28:22;;;;;;;4.05;1.40;;;;;;;12.05;75.56;101106.25;6243560;23;20107;-77
2023/07/07 05:31:27;;;;;;;4.53;2.20;;;;;;;12.14;75.96;101113.66;6226326;23;20074;-76
2023/07/07 05:34:31;;;;;;;3.92;1.83;;;;;;;12.19;75.83;101119.53;6244793;23;20373;-77
2023/07/07 05:37:34;;;;;;;3.90;1.60;;;;;;;12.29;76.20;101115.50;6245029;23;20473;-77
2023/07/07 05:40:39;;;;;;;;;;;;;;;12.45;76.07;101115.59;6245562;23;20096;-77
2023/07/07 05:43:42;;;;;;;5.50;1.58;;;;;;;12.58;74.93;101115.81;6245450;23;19914;-77
2023/07/07 05:46:45;;;;;;;3.15;1.48;;;;;;;12.59;75.20;101116.66;6226988;23;20019;-77
2023/07/07 05:49:53;;;;;;;7.03;1.60;;;;;;;12.69;75.50;101118.72;6245392;23;20093;-76
2023/07/07 05:52:56;;;;;;;5.07;1.83;;;;;;;12.74;75.65;101116.72;6245242;23;20023;-76
2023/07/07 05:56:08;;;;;;;;;;;;;;;12.84;76.05;101108.38;6244724;23;20022;-77
2023/07/07 05:59:11;;;;;;;3.95;1.90;;;;;;;12.98;76.28;101113.72;6244936;23;19962;-77
2023/07/07 06:02:15;;;;;;;2.85;1.75;;;;;;;13.11;75.60;101112.16;6245376;23;20544;-77
2023/07/07 06:05:18;;;;;;;6.88;1.80;;;;;;;13.16;75.69;101114.53;6245183;23;20031;-77
2023/07/07 06:08:21;;;;;;;3.85;2.05;;;;;;;13.21;75.69;101109.91;6245230;23;20031;-77
2023/07/07 06:11:45;;;;;;;3.22;2.03;;;;;;;13.34;75.92;101104.88;6243800;23;20074;-77
2023/07/07 06:14:50;;;;;;;3.88;1.90;;;;;;;13.51;75.69;101090.78;6244549;23;20027;-78
2023/07/07 06:17:55;;;;;;;4.70;2.08;;;;;;;13.65;75.09;101096.13;6245109;23;20079;-77
2023/07/07 06:20:59;;;;;;;3.83;1.40;;;;;;;13.79;74.00;101100.63;6245395;23;20357;-77
2023/07/07 06:24:03;;;;;;;4.13;1.70;;;;;;;13.86;73.63;101094.06;6245156;23;20023;-77
2023/07/07 06:27:06;;;;;;;3.80;1.35;;;;;;;13.98;72.82;101085.50;6245344;23;20074;-75
2023/07/07 06:30:10;;;;;;;4.85;1.70;;;;;;;14.12;72.86;101076.78;6244733;23;20023;-76
2023/07/07 06:33:13;;;;;;;3.58;1.67;;;;;;;14.27;71.82;101085.56;6245497;23;20073;-77
2023/07/07 06:36:17;;;;;;;3.55;1.70;;;;;;;14.37;71.75;101084.09;6226275;23;20060;-77
2023/07/07 06:39:20;;;;;;;3.42;1.40;;;;;;;14.51;71.78;101081.50;6245342;23;20024;-78
2023/07/07 06:42:24;;;;;;;3.88;2.00;;;;;;;14.65;70.88;101076.28;6245415;23;20023;-77
2023/07/07 06:45:37;;;;;;;5.03;1.43;;;;;;;14.78;70.66;101072.91;6226692;23;20062;-77
2023/07/07 06:48:40;;;;;;;3.63;1.63;;;;;;;14.88;70.60;101071.38;6245350;23;20071;-77
2023/07/07 06:51:43;;;;;;;4.60;1.67;;;;;;;15.01;69.25;101072.31;6245218;23;20078;-76
2023/07/07 06:54:46;;;;;;;;;;;;;;;15.11;68.80;101080.50;6245705;23;20500;-77
2023/07/07 06:57:50;;;;;;;2.53;1.33;;;;;;;15.20;68.88;101081.72;6245380;23;19914;-79
2023/07/07 07:00:53;;;;;;;4.38;1.48;;;;;;;15.32;67.93;101079.16;6245147;23;20051;-77
2023/07/07 07:04:00;;;;;;;4.47;1.58;;;;;;;15.47;66.38;101074.66;6245326;23;20103;-76
2023/07/07 07:07:04;;;;;;;4.75;1.58;;;;;;;15.59;66.57;101073.88;6245073;23;20026;-76
2023/07/07 07:10:10;;;;;;;5.97;1.50;;;;;;;15.70;66.27;101069.78;6247033;23;20564;-75
2023/07/07 07:13:13;;;;;;;4.20;1.75;;;;;;;15.80;65.41;101065.56;6246941;23;20059;-72
2023/07/07 07:16:16;;;;;;;3.28;1.27;;;;;;;15.93;64.29;101066.47;6246982;23;20027;-76
2023/07/07 07:19:19;;;;;;;4.80;1.70;;;;;;;16.08;64.03;101069.88;6246793;23;20058;-71
2023/07/07 07:22:22;;;;;;;;;;;;;;;16.19;61.19;101058.59;6247301;23;20026;-77
2023/07/07 07:25:26;;;;;;;5.25;1.60;;;;;;;16.24;62.33;101060.00;6246877;23;20245;-77
2023/07/07 07:28:29;;;;;;;3.03;1.45;;;;;;;16.32;61.32;101061.25;6246861;23;20066;-78
2023/07/07 07:31:36;;;;;;;3.38;1.40;;;;;;;16.41;61.31;101061.47;6246649;23;20158;-76
2023/07/07 07:34:39;;;;;;;7.13;1.92;;;;;;;16.56;60.63;101064.00;6246645;23;20019;-76
2023/07/07 07:37:42;;;;;;;6.03;1.73;;;;;;;16.79;60.16;101068.59;6246500;23;20522;-77
2023/07/07 07:40:46;;;;;;;6.40;1.70;;;;;;;16.84;60.29;101057.69;6246724;23;20357;-79
2023/07/07 07:43:49;;;;;;;4.18;1.50;;;;;;;17.00;60.02;101068.84;6246644;23;20076;-71
2023/07/07 07:46:55;;;;;;;4.25;1.60;;;;;;;17.08;59.35;101060.41;6246667;23;20042;-72
2023/07/07 07:49:58;;;;;;;3.85;1.50;;;;;;;17.28;58.71;101057.16;6246429;23;20031;-71
2023/07/07 07:53:02;;;;;;;5.28;1.95;;;;;;;17.51;58.87;101054.66;6246443;23;20544;-75
2023/07/07 07:56:05;;;;;;;3.80;1.60;;;;;;;17.77;56.54;101048.34;6246582;23;20500;-72
2023/07/07 07:59:12;;;;;;;4.43;1.42;;;;;;;17.86;57.05;101052.94;6246573;23;20405;-71
2023/07/07 08:02:15;;;;;;;5.72;1.52;;;;;;;17.97;56.94;101054.78;6244663;23;20023;-73
2023/07/07 08:05:19;;;;;;;7.68;1.58;;;;;;;18.07;57.03;101054.94;6243901;23;20134;-73
2023/07/07 08:08:22;;;;;;;5.65;1.70;;;;;;;18.29;56.75;101047.06;6227012;23;20027;-72
2023/07/07 08:11:41;;;;;;;9.23;2.50;;;;;;;18.46;55.51;101051.06;6246494;23;20392;-73
2023/07/07 08:14:44;;;;;;;3.50;1.67;;;;;;;18.55;55.03;101041.56;6246215;23;20405;-74
2023/07/07 08:17:47;;;;;;;7.28;1.80;;;;;;;18.59;55.33;101038.53;6246567;23;20027;-74
2023/07/07 08:20:52;;;;;;;3.35;1.20;;;;;;;18.65;54.99;101044.34;6246575;23;20023;-74
2023/07/07 08:23:56;;;;;;;6.00;1.80;;;;;;;18.93;54.37;101032.44;6227707;23;20058;-75
2023/07/07 08:27:09;;;;;;;4.35;1.70;;;;;;;19.18;54.18;101041.94;6246405;23;20046;-75
2023/07/07 08:30:16;;;;;;;3.88;1.77;;;;;;;19.39;53.66;101039.34;6227718;23;20450;-74
2023/07/07 08:36:30;;;;;;;7.13;1.80;;;;;;;19.54;52.94;101035.44;6202322;22;20028;-74
2023/07/07 08:39:33;;;;;;;4.30;1.50;;;;;;;19.70;53.04;101027.09;6215918;23;20046;-74
2023/07/07 08:42:40;;;;;;;5.28;1.80;;;;;;;19.74;52.51;101032.03;6214486;23;20027;-73
2023/07/07 08:45:56;;;;;;;4.22;1.88;;;;;;;20.02;52.08;101021.75;6214310;23;20020;-74
2023/07/07 08:49:20;;;;;;;5.35;1.48;;;;;;;20.28;51.78;101026.69;6215541;23;20397;-72
2023/07/07 08:52:42;;;;;;;10.10;1.80;;;;;;;20.47;50.72;101016.16;6215905;23;20023;-78
2023/07/07 08:56:10;;;;;;;5.68;1.80;;;;;;;20.53;50.66;101015.66;6215708;23;20054;-78
2023/07/07 08:59:25;;;;;;;4.40;1.55;;;;;;;20.63;50.24;101007.72;6215689;23;20024;-75
2023/07/07 09:03:12;;;;;;;6.75;1.63;;;;;;;20.89;49.42;101000.13;6215663;23;20082;-77
2023/07/07 09:06:57;;;;;;;4.15;1.67;;;;;;;21.08;49.91;101000.19;6215631;23;20094;-77
2023/07/07 09:10:34;;;;;;;7.03;1.70;;;;;;;21.25;49.12;100995.16;6206092;23;20102;-75
2023/07/07 09:13:39;;;;;;;4.03;1.90;;;;;;;21.42;48.02;100994.53;6215671;23;20100;-76
2023/07/07 09:16:46;;;;;;;8.55;1.92;;;;;;;21.74;47.79;100994.25;6215568;23;20051;-76
2023/07/07 09:19:52;;;;;;;6.30;1.80;;;;;;;21.84;46.60;100991.56;6214551;23;20114;-77
2023/07/07 09:23:21;;;;;;;5.70;1.75;;;;;;;21.79;46.20;100983.16;6215538;23;20086;-76
2023/07/07 09:26:35;;;;;;;3.72;1.70;;;;;;;21.77;45.51;100980.66;6215289;23;20409;-75
2023/07/07 09:30:19;;;;;;;5.18;1.80;;;;;;;21.84;44.52;100978.25;6215450;23;20027;-76
2023/07/07 09:33:23;;;;;;;3.95;1.50;;;;;;;21.99;43.20;100974.19;6215095;23;20032;-69
2023/07/07 09:36:54;;;;;;;3.10;1.70;;;;;;;22.22;41.65;100964.06;6213943;23;20472;-71
2023/07/07 09:40:17;;;;;;;3.10;1.52;;;;;;;22.35;42.46;100969.06;6244547;23;20303;-69
2023/07/07 09:43:23;;;;;;;3.65;1.90;;;;;;;22.42;42.22;100969.31;6245156;23;20027;-69
2023/07/07 09:46:54;;;;;;;9.02;1.80;;;;;;;22.75;41.79;100975.91;6244512;23;20071;-75
2023/07/07 09:50:15;;;;;;;4.45;1.88;;;;;;;22.88;39.77;100959.56;6245664;23;20549;-74
2023/07/07 09:53:26;;;;;;;6.72;1.98;;;;;;;23.05;39.12;100965.94;6245603;23;20027;-73
2023/07/07 09:56:39;;;;;;;4.93;2.25;;;;;;;23.25;38.78;100961.31;6245534;23;20019;-72
2023/07/07 09:59:48;;;;;;;4.20;1.60;;;;;;;23.45;38.33;100946.81;6245450;23;20404;-73
2023/07/07 10:02:52;;;;;;;15.20;2.50;;;;;;;23.41;38.93;100948.94;6245609;23;20030;-75
2023/07/07 10:05:59;;;;;;;8.65;2.38;;;;;;;23.57;39.18;100945.56;6245506;23;20086;-75
2023/07/07 10:09:05;;;;;;;9.73;2.17;;;;;;;23.79;36.50;100944.28;6245529;23;20078;-74
2023/07/07 10:12:13;;;;;;;10.30;2.65;;;;;;;23.99;37.33;100942.22;6245484;23;20085;-75
2023/07/07 10:15:50;;;;;;;5.22;2.00;;;;;;;24.01;36.88;100936.75;6244514;23;20111;-73
2023/07/07 10:18:54;;;;;;;5.32;2.08;;;;;;;23.80;36.12;100948.66;6245534;23;20095;-72
2023/07/07 10:21:58;;;;;;;7.63;2.92;;;;;;;24.05;36.30;100933.59;6245483;23;20027;-73
2023/07/07 10:25:04;;;;;;;4.07;1.92;;;;;;;24.15;37.00;100933.47;6245268;23;20050;-75
2023/07/07 10:28:11;;;;;;;3.85;2.20;;;;;;;24.25;35.18;100928.88;6245344;23;20081;-74
2023/07/07 10:31:16;;;;;;;3.60;2.08;;;;;;;24.11;35.03;100926.78;6245357;23;20023;-71
2023/07/07 10:34:29;;;;;;;6.68;2.15;;;;;;;24.29;34.06;100924.88;6245521;23;20023;-75
2023/07/07 10:37:36;;;;;;;3.33;1.60;;;;;;;24.24;33.64;100916.50;6245032;23;20357;-76
2023/07/07 10:40:42;;;;;;;4.50;1.73;;;;;;;24.33;34.01;100926.22;6245292;23;20107;-76
2023/07/07 10:43:46;;;;;;;4.60;2.50;;;;;;;24.38;33.67;100928.44;6247374;23;20400;-75
2023/07/07 10:46:49;;;;;;;6.18;2.17;;;;;;;24.28;33.83;100919.69;6247123;23;20023;-75
2023/07/07 10:49:56;;;;;;;4.75;1.95;;;;;;;24.39;33.64;100918.59;6247259;23;20073;-75
2023/07/07 10:53:11;;;;;;;3.80;2.20;;;;;;;24.81;33.39;100911.38;6229466;23;20027;-75
2023/07/07 10:56:42;;;;;;;2.97;1.85;;;;;;;24.91;32.52;100910.41;6247050;23;20026;-84
2023/07/07 11:00:07;;;;;;;4.63;2.13;;;;;;;25.09;32.78;100911.13;6245996;23;20471;-77
2023/07/07 11:03:42;;;;;;;6.45;1.92;;;;;;;24.76;32.30;100905.72;6247324;23;20370;-78
2023/07/07 11:07:13;;;;;;;3.58;1.88;;;;;;;24.79;31.49;100905.38;6247190;23;20027;-78
2023/07/07 11:10:40;;;;;;;7.18;2.05;;;;;;;25.18;32.13;100915.50;6245616;23;20052;-79
2023/07/07 11:13:52;;;;;;;3.88;2.00;;;;;;;25.03;30.70;100909.09;6246937;23;20102;-80
2023/07/07 11:17:01;;;;;;;6.05;2.60;;;;;;;24.74;29.40;100897.00;6246731;23;20480;-76
2023/07/07 11:20:34;;;;;;;4.22;2.22;;;;;;;24.78;30.19;100895.66;6246571;23;20102;-77
2023/07/07 11:24:03;;;;;;;4.40;2.30;;;;;;;24.72;30.15;100890.97;6246677;23;20035;-76
2023/07/07 11:27:21;;;;;;;4.45;2.53;;;;;;;24.90;30.08;100890.03;6246622;23;20525;-78
2023/07/07 11:30:58;;;;;;;3.40;2.25;;;;;;;25.14;29.54;100882.03;6246584;23;20134;-76
2023/07/07 11:34:12;;;;;;;3.58;2.45;;;;;;;25.07;28.73;100870.31;6230998;23;20031;-76
2023/07/07 11:37:37;;;;;;;3.85;2.53;;;;;;;25.18;29.24;100866.50;6245126;23;20521;-78
2023/07/07 11:41:04;;;;;;;6.93;2.78;;;;;;;25.44;28.25;100867.16;6246291;23;20102;-77
2023/07/07 11:44:30;;;;;;;6.20;3.47;;;;;;;25.79;27.81;100866.94;6246314;23;20087;-76
2023/07/07 11:47:39;;;;;;;4.22;2.80;;;;;;;25.60;26.91;100868.97;6246317;23;20106;-77
2023/07/07 11:51:38;;;;;;;4.82;3.40;;;;;;;25.43;27.02;100867.31;6246609;23;20023;-77
2023/07/07 11:55:03;;;;;;;5.22;3.15;;;;;;;25.31;26.78;100860.66;6157119;23;20027;-78
2023/07/07 11:58:06;;;;;;;5.93;3.58;;;;;;;25.24;26.67;100852.47;6246308;23;20027;-79
2023/07/07 12:01:18;;;;;;;7.47;3.92;;;;;;;25.27;26.58;100855.63;6245320;23;20050;-77
2023/07/07 12:04:31;;;;;;;5.18;3.67;;;;;;;25.28;25.95;100840.41;6246192;23;20039;-78
2023/07/07 12:07:45;;;;;;;8.02;4.05;;;;;;;25.28;26.35;100846.59;6244435;23;20077;-78
2023/07/07 12:10:56;;;;;;;5.28;3.42;;;;;;;25.46;27.04;100853.59;6245609;23;20400;-78
2023/07/07 12:14:29;;;;;;;5.45;3.80;;;;;;;25.57;25.03;100855.09;6244617;23;20043;-79
2023/07/07 12:17:40;;;;;;;6.72;4.47;;;;;;;25.74;25.06;100849.53;6245771;23;20465;-80
2023/07/07 12:20:50;;;;;;;6.65;4.07;;;;;;;25.86;24.80;100843.84;6244838;23;20027;-79
2023/07/07 12:23:53;;;;;;;6.32;3.97;;;;;;;25.81;25.47;100835.47;6246144;23;20126;-79
2023/07/07 12:27:08;;;;;;;4.93;3.60;;;;;;;25.82;25.53;100837.16;6246117;23;20111;-79
2023/07/07 12:30:30;;;;;;;5.85;3.78;;;;;;;25.80;25.47;100836.47;6244688;23;20069;-79
2023/07/07 12:33:41;;;;;;;8.63;4.47;;;;;;;25.82;25.63;100842.53;6245897;23;20023;-79
2023/07/07 12:36:48;;;;;;;7.25;3.70;;;;;;;25.91;25.42;100831.63;6245582;23;20082;-79
2023/07/07 12:39:56;;;;;;;5.63;4.00;;;;;;;26.03;24.46;100829.38;6245902;23;20105;-79
2023/07/07 12:43:18;;;;;;;7.47;4.35;;;;;;;26.15;24.42;100827.97;6245984;23;20050;-78
2023/07/07 12:46:29;;;;;;;5.90;4.10;;;;;;;26.26;24.86;100828.59;6245776;23;20420;-79
2023/07/07 12:49:43;;;;;;;5.30;4.20;;;;;;;26.45;25.21;100833.53;6245831;23;20475;-79
2023/07/07 12:52:57;;;;;;;7.15;4.70;;;;;;;26.67;25.08;100821.19;6244859;23;20480;-78
2023/07/07 12:56:08;;;;;;;8.00;4.85;;;;;;;26.87;24.97;100822.41;6245686;23;20022;-79
2023/07/07 12:59:33;;;;;;;;;;;;;;;27.00;24.62;100816.41;6246176;23;20054;-80
2023/07/07 13:03:06;;;;;;;6.53;3.80;;;;;;;27.23;24.22;100804.84;6245682;23;19914;-79
2023/07/07 13:06:23;;;;;;;6.85;4.72;;;;;;;27.51;24.48;100813.97;6245593;23;20078;-77
2023/07/07 13:09:28;;;;;;;6.45;5.03;;;;;;;27.49;23.62;100805.25;6246069;23;20085;-81
2023/07/07 13:12:47;;;;;;;6.10;4.90;;;;;;;27.63;24.33;100800.88;6245379;23;20078;-78
2023/07/07 13:15:53;;;;;;;8.50;4.97;;;;;;;27.85;23.54;100792.94;6245823;23;20022;-78
2023/07/07 13:18:56;;;;;;;9.82;6.22;;;;;;;28.10;23.74;100790.78;6245955;23;20475;-78
2023/07/07 13:22:05;;;;;;;8.00;5.38;;;;;;;28.23;23.42;100788.25;6245534;23;20027;-77
2023/07/07 13:25:21;;;;;;;6.35;5.10;;;;;;;28.41;23.11;100799.47;6245460;23;20082;-78
2023/07/07 13:28:25;;;;;;;8.13;5.28;;;;;;;28.62;21.60;100787.03;6245430;23;20023;-77
2023/07/07 13:31:28;;;;;;;7.70;6.13;;;;;;;28.91;21.89;100786.91;6245451;23;20023;-76
2023/07/07 13:34:33;;;;;;;8.77;6.03;;;;;;;29.12;22.18;100780.69;6244371;23;20051;-78
2023/07/07 13:37:37;;;;;;;8.85;5.65;;;;;;;29.40;21.60;100777.16;6245123;23;20519;-78
2023/07/07 13:40:41;;;;;;;7.28;6.47;;;;;;;29.52;21.47;100775.56;6245332;23;20488;-78
2023/07/07 13:43:55;;;;;;;10.15;6.43;;;;;;;29.64;20.94;100767.78;6226835;23;20089;-80
2023/07/07 13:47:04;;;;;;;8.00;5.53;;;;;;;29.91;21.06;100760.66;6245390;23;20744;-80
2023/07/07 13:50:37;;;;;;;6.63;5.13;;;;;;;30.17;21.04;100762.59;6244229;23;20149;-78
2023/07/07 13:53:40;;;;;;;11.10;6.72;;;;;;;30.73;21.98;100765.03;6244502;23;20088;-80
2023/07/07 13:56:48;;;;;;;9.90;6.07;;;;;;;30.62;21.25;100754.00;6245161;23;20065;-79
2023/07/07 13:59:52;;;;;;;9.30;5.80;;;;;;;30.98;20.95;100750.91;6245047;23;20374;-79
2023/07/07 14:02:56;;;;;;;9.52;5.97;;;;;;;31.26;20.94;100751.50;6245033;23;20062;-79
2023/07/07 14:06:12;;;;;;;7.93;5.22;;;;;;;31.77;20.46;100735.59;6244803;23;20027;-80
2023/07/07 14:09:28;;;;;;;9.90;5.68;;;;;;;31.72;20.21;100734.38;6243890;23;20074;-80
2023/07/07 14:31:11;;;;;;;9.15;7.13;;;;;;;38.18;13.49;100719.44;4951758;28;20083;-77
2023/07/07 14:34:14;;;;;;;9.93;6.70;;;;;;;41.13;11.50;100707.91;4950153;29;20515;-77
2023/07/07 14:37:22;;;;;;;7.72;6.78;;;;;;;44.09;10.05;100707.09;4951841;29;20102;-79
2023/07/07 14:40:36;;;;;;;7.55;6.70;;;;;;;45.45;8.71;100712.31;4951499;29;20078;-77
2023/07/07 14:43:41;;;;;;;8.57;7.20;;;;;;;42.85;9.26;100719.97;4951663;29;20114;-78
2023/07/07 14:46:46;;;;;;;8.07;6.63;;;;;;;45.24;7.87;100691.78;4951852;29;20070;-79
2023/07/07 14:49:50;;;;;;;8.25;6.97;;;;;;;43.79;9.02;100696.53;4950847;29;20114;-79
2023/07/07 14:52:55;;;;;;;9.38;6.93;;;;;;;45.69;7.36;100694.66;4950453;29;20050;-76
2023/07/07 14:55:59;;;;;;;7.95;6.35;;;;;;;44.52;7.82;100690.41;4950898;29;20074;-76
2023/07/07 14:59:15;;;;;;;7.10;6.40;;;;;;;42.71;8.10;100697.84;4953303;28;20058;-75
2023/07/07 15:02:28;;;;;;;9.85;6.65;;;;;;;40.66;9.68;100700.03;4969964;28;20071;-78
2023/07/07 15:05:34;;;;;;;7.55;6.50;;;;;;;41.95;8.90;100696.53;4970647;28;20097;-73
2023/07/07 15:08:45;;;;;;;7.55;6.13;;;;;;;41.08;9.72;100683.22;4970745;28;20053;-77